sensor_id;sensor_type;location;lat;lon;timestamp;P1;durP1;ratioP1;P2;durP2;ratioP2
63653;SDS011;49809;47.418;19.080;2023-02-08T00:00:38;5.00;;;4.40;;
63653;SDS011;49809;47.418;19.080;2023-02-08T00:03:42;7.18;;;4.07;;
63653;SDS011;49809;47.418;19.080;2023-02-08T00:06:45;8.00;;;4.25;;
63653;SDS011;49809;47.418;19.080;2023-02-08T00:09:56;9.18;;;5.30;;
63653;SDS011;49809;47.418;19.080;2023-02-08T00:12:59;7.18;;;3.08;;
63653;SDS011;49809;47.418;19.080;2023-02-08T00:16:04;12.98;;;4.78;;
63653;SDS011;49809;47.418;19.080;2023-02-08T00:19:27;4.50;;;3.37;;
63653;SDS011;49809;47.418;19.080;2023-02-08T00:22:35;6.97;;;4.82;;
63653;SDS011;49809;47.418;19.080;2023-02-08T00:25:40;12.57;;;5.37;;
63653;SDS011;49809;47.418;19.080;2023-02-08T00:28:48;7.35;;;5.68;;
63653;SDS011;49809;47.418;19.080;2023-02-08T00:31:52;9.05;;;4.75;;
63653;SDS011;49809;47.418;19.080;2023-02-08T00:34:58;9.90;;;5.43;;
63653;SDS011;49809;47.418;19.080;2023-02-08T00:38:01;6.47;;;4.85;;
63653;SDS011;49809;47.418;19.080;2023-02-08T00:41:04;11.50;;;5.05;;
63653;SDS011;49809;47.418;19.080;2023-02-08T00:44:07;12.63;;;5.78;;
63653;SDS011;49809;47.418;19.080;2023-02-08T00:47:10;6.78;;;5.32;;
63653;SDS011;49809;47.418;19.080;2023-02-08T00:50:16;8.20;;;4.72;;
63653;SDS011;49809;47.418;19.080;2023-02-08T00:53:19;9.05;;;5.40;;
63653;SDS011;49809;47.418;19.080;2023-02-08T00:56:25;15.18;;;5.68;;
63653;SDS011;49809;47.418;19.080;2023-02-08T00:59:33;16.45;;;5.15;;
63653;SDS011;49809;47.418;19.080;2023-02-08T01:02:38;13.23;;;4.57;;
63653;SDS011;49809;47.418;19.080;2023-02-08T01:05:41;9.45;;;4.05;;
63653;SDS011;49809;47.418;19.080;2023-02-08T01:08:50;14.75;;;5.22;;
63653;SDS011;49809;47.418;19.080;2023-02-08T01:11:58;10.52;;;4.22;;
63653;SDS011;49809;47.418;19.080;2023-02-08T01:15:04;6.97;;;3.90;;
63653;SDS011;49809;47.418;19.080;2023-02-08T01:18:11;7.87;;;4.32;;
63653;SDS011;49809;47.418;19.080;2023-02-08T01:21:17;9.88;;;3.70;;
63653;SDS011;49809;47.418;19.080;2023-02-08T01:24:24;20.62;;;6.40;;
63653;SDS011;49809;47.418;19.080;2023-02-08T01:27:27;6.32;;;4.90;;
63653;SDS011;49809;47.418;19.080;2023-02-08T01:30:50;7.65;;;4.78;;
63653;SDS011;49809;47.418;19.080;2023-02-08T01:33:53;5.93;;;3.55;;
63653;SDS011;49809;47.418;19.080;2023-02-08T01:36:56;4.82;;;2.87;;
63653;SDS011;49809;47.418;19.080;2023-02-08T01:39:59;9.27;;;4.75;;
63653;SDS011;49809;47.418;19.080;2023-02-08T01:43:05;5.80;;;3.90;;
63653;SDS011;49809;47.418;19.080;2023-02-08T01:46:19;4.50;;;2.22;;
63653;SDS011;49809;47.418;19.080;2023-02-08T01:49:24;5.82;;;3.90;;
63653;SDS011;49809;47.418;19.080;2023-02-08T01:52:30;6.95;;;3.78;;
63653;SDS011;49809;47.418;19.080;2023-02-08T01:55:38;6.28;;;4.07;;
63653;SDS011;49809;47.418;19.080;2023-02-08T01:59:09;2.67;;;2.22;;
63653;SDS011;49809;47.418;19.080;2023-02-08T02:02:21;8.15;;;4.35;;
63653;SDS011;49809;47.418;19.080;2023-02-08T02:05:27;6.57;;;3.28;;
63653;SDS011;49809;47.418;19.080;2023-02-08T02:08:37;3.60;;;2.70;;
63653;SDS011;49809;47.418;19.080;2023-02-08T02:11:46;10.35;;;4.80;;
63653;SDS011;49809;47.418;19.080;2023-02-08T02:14:52;5.82;;;2.87;;
63653;SDS011;49809;47.418;19.080;2023-02-08T02:17:55;15.23;;;3.50;;
63653;SDS011;49809;47.418;19.080;2023-02-08T02:31:29;5.70;;;3.28;;
63653;SDS011;49809;47.418;19.080;2023-02-08T02:45:45;1.85;;;1.45;;
63653;SDS011;49809;47.418;19.080;2023-02-08T02:55:42;4.95;;;2.47;;
63653;SDS011;49809;47.418;19.080;2023-02-08T02:58:49;6.25;;;2.28;;
63653;SDS011;49809;47.418;19.080;2023-02-08T03:01:56;2.47;;;2.10;;
63653;SDS011;49809;47.418;19.080;2023-02-08T03:04:59;5.10;;;2.83;;
63653;SDS011;49809;47.418;19.080;2023-02-08T03:08:14;5.82;;;3.00;;
63653;SDS011;49809;47.418;19.080;2023-02-08T03:11:37;5.62;;;2.50;;
63653;SDS011;49809;47.418;19.080;2023-02-08T03:24:45;5.97;;;3.47;;
63653;SDS011;49809;47.418;19.080;2023-02-08T03:34:47;9.85;;;3.60;;
63653;SDS011;49809;47.418;19.080;2023-02-08T03:41:19;5.80;;;2.83;;
63653;SDS011;49809;47.418;19.080;2023-02-08T03:44:32;4.97;;;2.28;;
63653;SDS011;49809;47.418;19.080;2023-02-08T03:47:39;5.12;;;3.45;;
63653;SDS011;49809;47.418;19.080;2023-02-08T03:50:49;4.70;;;2.78;;
63653;SDS011;49809;47.418;19.080;2023-02-08T03:53:56;6.25;;;2.92;;
63653;SDS011;49809;47.418;19.080;2023-02-08T03:57:16;3.03;;;2.20;;
63653;SDS011;49809;47.418;19.080;2023-02-08T04:00:24;4.30;;;2.55;;
63653;SDS011;49809;47.418;19.080;2023-02-08T04:03:28;2.15;;;1.70;;
63653;SDS011;49809;47.418;19.080;2023-02-08T04:06:41;7.80;;;2.90;;
63653;SDS011;49809;47.418;19.080;2023-02-08T04:09:47;5.28;;;2.53;;
63653;SDS011;49809;47.418;19.080;2023-02-08T04:12:55;2.53;;;1.35;;
63653;SDS011;49809;47.418;19.080;2023-02-08T04:15:58;4.95;;;2.03;;
63653;SDS011;49809;47.418;19.080;2023-02-08T04:19:03;5.82;;;2.20;;
63653;SDS011;49809;47.418;19.080;2023-02-08T04:22:07;3.40;;;2.57;;
63653;SDS011;49809;47.418;19.080;2023-02-08T04:25:09;6.03;;;2.60;;
63653;SDS011;49809;47.418;19.080;2023-02-08T04:28:12;2.45;;;2.25;;
63653;SDS011;49809;47.418;19.080;2023-02-08T04:31:17;4.25;;;2.30;;
63653;SDS011;49809;47.418;19.080;2023-02-08T04:34:20;2.50;;;1.77;;
63653;SDS011;49809;47.418;19.080;2023-02-08T04:37:23;2.75;;;2.17;;
63653;SDS011;49809;47.418;19.080;2023-02-08T04:40:35;4.65;;;2.35;;
63653;SDS011;49809;47.418;19.080;2023-02-08T04:43:41;2.90;;;1.80;;
63653;SDS011;49809;47.418;19.080;2023-02-08T04:46:47;5.07;;;2.23;;
63653;SDS011;49809;47.418;19.080;2023-02-08T04:49:54;4.10;;;2.22;;
63653;SDS011;49809;47.418;19.080;2023-02-08T04:52:57;4.82;;;2.42;;
63653;SDS011;49809;47.418;19.080;2023-02-08T04:56:02;4.22;;;2.35;;
63653;SDS011;49809;47.418;19.080;2023-02-08T04:59:08;3.95;;;2.75;;
63653;SDS011;49809;47.418;19.080;2023-02-08T05:02:22;3.67;;;2.53;;
63653;SDS011;49809;47.418;19.080;2023-02-08T05:05:25;2.20;;;1.30;;
63653;SDS011;49809;47.418;19.080;2023-02-08T05:08:30;3.17;;;2.25;;
63653;SDS011;49809;47.418;19.080;2023-02-08T05:11:35;3.87;;;2.15;;
63653;SDS011;49809;47.418;19.080;2023-02-08T05:14:43;4.35;;;2.33;;
63653;SDS011;49809;47.418;19.080;2023-02-08T05:17:53;3.65;;;1.95;;
63653;SDS011;49809;47.418;19.080;2023-02-08T05:21:27;3.03;;;1.70;;
63653;SDS011;49809;47.418;19.080;2023-02-08T05:25:38;5.43;;;1.73;;
63653;SDS011;49809;47.418;19.080;2023-02-08T05:29:35;1.67;;;1.55;;
63653;SDS011;49809;47.418;19.080;2023-02-08T05:33:30;6.40;;;2.95;;
63653;SDS011;49809;47.418;19.080;2023-02-08T05:37:43;4.62;;;1.92;;
63653;SDS011;49809;47.418;19.080;2023-02-08T05:41:49;1.27;;;1.17;;
63653;SDS011;49809;47.418;19.080;2023-02-08T05:45:42;2.40;;;1.75;;
63653;SDS011;49809;47.418;19.080;2023-02-08T05:49:33;8.38;;;2.35;;
63653;SDS011;49809;47.418;19.080;2023-02-08T05:53:18;4.55;;;1.92;;
63653;SDS011;49809;47.418;19.080;2023-02-08T05:57:33;4.43;;;2.15;;
63653;SDS011;49809;47.418;19.080;2023-02-08T06:00:59;4.07;;;2.37;;
63653;SDS011;49809;47.418;19.080;2023-02-08T06:04:23;5.62;;;2.30;;
63653;SDS011;49809;47.418;19.080;2023-02-08T06:08:07;1.58;;;1.30;;
63653;SDS011;49809;47.418;19.080;2023-02-08T06:12:14;6.10;;;2.00;;
63653;SDS011;49809;47.418;19.080;2023-02-08T06:16:07;2.78;;;1.73;;
63653;SDS011;49809;47.418;19.080;2023-02-08T06:20:21;2.92;;;2.53;;
63653;SDS011;49809;47.418;19.080;2023-02-08T06:24:13;2.95;;;1.23;;
63653;SDS011;49809;47.418;19.080;2023-02-08T06:28:31;1.30;;;1.23;;
63653;SDS011;49809;47.418;19.080;2023-02-08T06:32:00;0.90;;;0.90;;
63653;SDS011;49809;47.418;19.080;2023-02-08T06:35:49;1.87;;;1.58;;
63653;SDS011;49809;47.418;19.080;2023-02-08T06:39:44;1.35;;;1.25;;
63653;SDS011;49809;47.418;19.080;2023-02-08T06:44:00;3.85;;;1.50;;
63653;SDS011;49809;47.418;19.080;2023-02-08T06:47:55;7.78;;;2.12;;
63653;SDS011;49809;47.418;19.080;2023-02-08T06:52:04;12.68;;;1.40;;
63653;SDS011;49809;47.418;19.080;2023-02-08T06:55:38;3.00;;;1.60;;
63653;SDS011;49809;47.418;19.080;2023-02-08T06:59:01;6.00;;;1.95;;
63653;SDS011;49809;47.418;19.080;2023-02-08T07:02:32;2.35;;;2.15;;
63653;SDS011;49809;47.418;19.080;2023-02-08T07:06:14;1.75;;;1.52;;
63653;SDS011;49809;47.418;19.080;2023-02-08T07:09:55;3.50;;;1.60;;
63653;SDS011;49809;47.418;19.080;2023-02-08T07:13:34;7.50;;;2.03;;
63653;SDS011;49809;47.418;19.080;2023-02-08T07:16:54;2.20;;;1.70;;
63653;SDS011;49809;47.418;19.080;2023-02-08T07:20:35;4.28;;;1.83;;
63653;SDS011;49809;47.418;19.080;2023-02-08T07:23:58;2.67;;;1.90;;
63653;SDS011;49809;47.418;19.080;2023-02-08T07:27:19;2.15;;;1.58;;
63653;SDS011;49809;47.418;19.080;2023-02-08T07:31:03;3.53;;;2.00;;
63653;SDS011;49809;47.418;19.080;2023-02-08T07:34:43;4.47;;;2.97;;
63653;SDS011;49809;47.418;19.080;2023-02-08T07:38:20;5.57;;;2.35;;
63653;SDS011;49809;47.418;19.080;2023-02-08T07:41:37;6.72;;;2.25;;
63653;SDS011;49809;47.418;19.080;2023-02-08T07:45:14;4.53;;;2.90;;
63653;SDS011;49809;47.418;19.080;2023-02-08T07:48:35;8.32;;;2.03;;
63653;SDS011;49809;47.418;19.080;2023-02-08T07:51:59;3.05;;;2.05;;
63653;SDS011;49809;47.418;19.080;2023-02-08T07:55:17;4.75;;;1.52;;
63653;SDS011;49809;47.418;19.080;2023-02-08T07:58:36;4.37;;;2.60;;
63653;SDS011;49809;47.418;19.080;2023-02-08T08:02:10;3.95;;;1.83;;
63653;SDS011;49809;47.418;19.080;2023-02-08T08:05:28;7.00;;;3.28;;
63653;SDS011;49809;47.418;19.080;2023-02-08T08:08:45;3.60;;;2.33;;
63653;SDS011;49809;47.418;19.080;2023-02-08T08:12:05;4.45;;;3.00;;
63653;SDS011;49809;47.418;19.080;2023-02-08T08:15:41;5.72;;;2.80;;
63653;SDS011;49809;47.418;19.080;2023-02-08T08:22:41;4.22;;;2.10;;
63653;SDS011;49809;47.418;19.080;2023-02-08T08:26:15;3.80;;;2.12;;
63653;SDS011;49809;47.418;19.080;2023-02-08T08:29:36;3.55;;;2.28;;
63653;SDS011;49809;47.418;19.080;2023-02-08T08:33:12;4.07;;;2.50;;
63653;SDS011;49809;47.418;19.080;2023-02-08T08:36:50;5.57;;;2.83;;
63653;SDS011;49809;47.418;19.080;2023-02-08T08:40:23;4.45;;;3.10;;
63653;SDS011;49809;47.418;19.080;2023-02-08T08:43:58;5.15;;;2.37;;
63653;SDS011;49809;47.418;19.080;2023-02-08T08:47:40;5.82;;;2.87;;
63653;SDS011;49809;47.418;19.080;2023-02-08T08:51:15;5.32;;;2.22;;
63653;SDS011;49809;47.418;19.080;2023-02-08T08:54:48;3.83;;;2.25;;
63653;SDS011;49809;47.418;19.080;2023-02-08T08:58:21;2.70;;;1.62;;
63653;SDS011;49809;47.418;19.080;2023-02-08T09:01:51;2.65;;;1.90;;
63653;SDS011;49809;47.418;19.080;2023-02-08T09:05:13;4.03;;;1.95;;
63653;SDS011;49809;47.418;19.080;2023-02-08T09:08:47;2.30;;;1.80;;
63653;SDS011;49809;47.418;19.080;2023-02-08T09:12:18;3.62;;;0.93;;
63653;SDS011;49809;47.418;19.080;2023-02-08T09:15:54;4.05;;;1.48;;
63653;SDS011;49809;47.418;19.080;2023-02-08T09:19:14;5.12;;;2.72;;
63653;SDS011;49809;47.418;19.080;2023-02-08T09:22:47;2.95;;;2.53;;
63653;SDS011;49809;47.418;19.080;2023-02-08T09:26:28;5.07;;;1.60;;
63653;SDS011;49809;47.418;19.080;2023-02-08T09:30:03;1.87;;;1.65;;
63653;SDS011;49809;47.418;19.080;2023-02-08T09:33:39;3.47;;;1.58;;
63653;SDS011;49809;47.418;19.080;2023-02-08T09:37:11;3.60;;;1.55;;
63653;SDS011;49809;47.418;19.080;2023-02-08T09:40:54;2.42;;;2.03;;
63653;SDS011;49809;47.418;19.080;2023-02-08T09:44:31;5.43;;;2.65;;
63653;SDS011;49809;47.418;19.080;2023-02-08T09:52:07;1.77;;;1.58;;
63653;SDS011;49809;47.418;19.080;2023-02-08T09:55:58;3.03;;;1.75;;
63653;SDS011;49809;47.418;19.080;2023-02-08T09:59:20;6.93;;;1.92;;
63653;SDS011;49809;47.418;19.080;2023-02-08T10:03:02;3.87;;;2.50;;
63653;SDS011;49809;47.418;19.080;2023-02-08T10:06:35;6.20;;;2.92;;
63653;SDS011;49809;47.418;19.080;2023-02-08T10:10:13;3.40;;;1.77;;
63653;SDS011;49809;47.418;19.080;2023-02-08T10:33:48;3.90;;;1.98;;
63653;SDS011;49809;47.418;19.080;2023-02-08T10:37:18;3.53;;;2.00;;
63653;SDS011;49809;47.418;19.080;2023-02-08T10:41:00;5.80;;;3.17;;
63653;SDS011;49809;47.418;19.080;2023-02-08T10:44:40;6.35;;;2.90;;
63653;SDS011;49809;47.418;19.080;2023-02-08T10:48:12;4.57;;;2.53;;
63653;SDS011;49809;47.418;19.080;2023-02-08T10:51:57;5.75;;;3.53;;
63653;SDS011;49809;47.418;19.080;2023-02-08T10:55:34;7.20;;;3.22;;
63653;SDS011;49809;47.418;19.080;2023-02-08T10:59:19;3.75;;;2.25;;
63653;SDS011;49809;47.418;19.080;2023-02-08T11:02:58;3.25;;;2.33;;
63653;SDS011;49809;47.418;19.080;2023-02-08T11:14:04;6.82;;;2.85;;
63653;SDS011;49809;47.418;19.080;2023-02-08T11:17:45;9.75;;;2.85;;
63653;SDS011;49809;47.418;19.080;2023-02-08T11:21:26;4.70;;;2.97;;
63653;SDS011;49809;47.418;19.080;2023-02-08T11:25:05;6.15;;;2.28;;
63653;SDS011;49809;47.418;19.080;2023-02-08T11:28:25;5.37;;;2.67;;
63653;SDS011;49809;47.418;19.080;2023-02-08T11:32:01;6.28;;;3.53;;
63653;SDS011;49809;47.418;19.080;2023-02-08T11:35:51;5.30;;;2.87;;
63653;SDS011;49809;47.418;19.080;2023-02-08T11:39:27;7.53;;;3.42;;
63653;SDS011;49809;47.418;19.080;2023-02-08T11:43:04;9.15;;;3.47;;
63653;SDS011;49809;47.418;19.080;2023-02-08T11:46:25;5.93;;;3.50;;
63653;SDS011;49809;47.418;19.080;2023-02-08T11:50:06;6.68;;;3.78;;
63653;SDS011;49809;47.418;19.080;2023-02-08T11:53:55;7.43;;;3.80;;
63653;SDS011;49809;47.418;19.080;2023-02-08T11:57:32;9.55;;;4.35;;
63653;SDS011;49809;47.418;19.080;2023-02-08T12:00:58;6.68;;;3.47;;
63653;SDS011;49809;47.418;19.080;2023-02-08T12:04:41;9.48;;;3.92;;
63653;SDS011;49809;47.418;19.080;2023-02-08T12:23:34;8.77;;;3.22;;
63653;SDS011;49809;47.418;19.080;2023-02-08T12:27:21;6.78;;;3.03;;
63653;SDS011;49809;47.418;19.080;2023-02-08T12:31:17;5.50;;;2.65;;
63653;SDS011;49809;47.418;19.080;2023-02-08T12:39:17;3.62;;;2.15;;
63653;SDS011;49809;47.418;19.080;2023-02-08T13:01:53;7.50;;;2.87;;
63653;SDS011;49809;47.418;19.080;2023-02-08T13:05:36;5.75;;;2.47;;
63653;SDS011;49809;47.418;19.080;2023-02-08T13:12:49;3.40;;;2.37;;
63653;SDS011;49809;47.418;19.080;2023-02-08T13:16:25;2.58;;;2.00;;
63653;SDS011;49809;47.418;19.080;2023-02-08T13:20:12;3.42;;;2.55;;
63653;SDS011;49809;47.418;19.080;2023-02-08T13:23:59;4.03;;;2.30;;
63653;SDS011;49809;47.418;19.080;2023-02-08T13:27:39;3.97;;;2.20;;
63653;SDS011;49809;47.418;19.080;2023-02-08T13:30:43;3.75;;;2.05;;
63653;SDS011;49809;47.418;19.080;2023-02-08T13:34:02;3.20;;;2.03;;
63653;SDS011;49809;47.418;19.080;2023-02-08T13:37:23;3.85;;;1.90;;
63653;SDS011;49809;47.418;19.080;2023-02-08T13:40:38;3.67;;;1.75;;
63653;SDS011;49809;47.418;19.080;2023-02-08T13:43:57;7.80;;;3.10;;
63653;SDS011;49809;47.418;19.080;2023-02-08T13:47:07;4.82;;;2.80;;
63653;SDS011;49809;47.418;19.080;2023-02-08T13:56:50;4.30;;;2.22;;
63653;SDS011;49809;47.418;19.080;2023-02-08T14:03:29;8.43;;;2.80;;
63653;SDS011;49809;47.418;19.080;2023-02-08T14:10:07;8.30;;;2.00;;
63653;SDS011;49809;47.418;19.080;2023-02-08T14:13:22;3.40;;;2.08;;
63653;SDS011;49809;47.418;19.080;2023-02-08T14:16:30;4.72;;;2.67;;
63653;SDS011;49809;47.418;19.080;2023-02-08T14:20:17;4.35;;;2.20;;
63653;SDS011;49809;47.418;19.080;2023-02-08T14:23:30;7.18;;;3.65;;
63653;SDS011;49809;47.418;19.080;2023-02-08T14:29:40;12.85;;;5.03;;
63653;SDS011;49809;47.418;19.080;2023-02-08T14:32:47;6.47;;;2.37;;
63653;SDS011;49809;47.418;19.080;2023-02-08T14:39:36;3.60;;;2.40;;
63653;SDS011;49809;47.418;19.080;2023-02-08T14:49:43;8.63;;;3.75;;
63653;SDS011;49809;47.418;19.080;2023-02-08T14:53:01;9.13;;;3.87;;
63653;SDS011;49809;47.418;19.080;2023-02-08T14:59:18;5.87;;;2.78;;
63653;SDS011;49809;47.418;19.080;2023-02-08T15:02:49;7.07;;;2.87;;
63653;SDS011;49809;47.418;19.080;2023-02-08T15:09:30;4.55;;;1.80;;
63653;SDS011;49809;47.418;19.080;2023-02-08T15:12:39;4.57;;;1.95;;
63653;SDS011;49809;47.418;19.080;2023-02-08T15:15:48;3.65;;;2.47;;
63653;SDS011;49809;47.418;19.080;2023-02-08T15:18:55;3.83;;;2.35;;
63653;SDS011;49809;47.418;19.080;2023-02-08T15:25:29;7.12;;;3.20;;
63653;SDS011;49809;47.418;19.080;2023-02-08T15:28:34;6.12;;;2.67;;
63653;SDS011;49809;47.418;19.080;2023-02-08T15:31:37;5.12;;;2.55;;
63653;SDS011;49809;47.418;19.080;2023-02-08T15:34:47;3.20;;;2.50;;
63653;SDS011;49809;47.418;19.080;2023-02-08T15:37:57;3.53;;;2.45;;
63653;SDS011;49809;47.418;19.080;2023-02-08T15:41:04;6.75;;;3.22;;
63653;SDS011;49809;47.418;19.080;2023-02-08T15:44:28;4.87;;;2.92;;
63653;SDS011;49809;47.418;19.080;2023-02-08T15:47:35;3.35;;;2.60;;
63653;SDS011;49809;47.418;19.080;2023-02-08T15:50:42;3.85;;;2.22;;
63653;SDS011;49809;47.418;19.080;2023-02-08T15:53:47;5.47;;;2.50;;
63653;SDS011;49809;47.418;19.080;2023-02-08T15:56:59;4.90;;;3.22;;
63653;SDS011;49809;47.418;19.080;2023-02-08T16:00:17;8.30;;;3.03;;
63653;SDS011;49809;47.418;19.080;2023-02-08T16:03:23;6.60;;;3.17;;
63653;SDS011;49809;47.418;19.080;2023-02-08T16:06:33;7.70;;;4.37;;
63653;SDS011;49809;47.418;19.080;2023-02-08T16:09:44;7.07;;;2.95;;
63653;SDS011;49809;47.418;19.080;2023-02-08T16:12:49;10.68;;;3.67;;
63653;SDS011;49809;47.418;19.080;2023-02-08T16:15:57;8.68;;;3.42;;
63653;SDS011;49809;47.418;19.080;2023-02-08T16:22:24;14.10;;;3.40;;
63653;SDS011;49809;47.418;19.080;2023-02-08T16:25:42;4.10;;;2.55;;
63653;SDS011;49809;47.418;19.080;2023-02-08T16:28:54;17.60;;;3.15;;
63653;SDS011;49809;47.418;19.080;2023-02-08T16:35:23;4.97;;;3.87;;
63653;SDS011;49809;47.418;19.080;2023-02-08T16:45:35;5.30;;;2.65;;
63653;SDS011;49809;47.418;19.080;2023-02-08T16:48:44;9.50;;;3.08;;
63653;SDS011;49809;47.418;19.080;2023-02-08T16:52:10;6.70;;;3.95;;
63653;SDS011;49809;47.418;19.080;2023-02-08T16:55:17;8.65;;;4.82;;
63653;SDS011;49809;47.418;19.080;2023-02-08T16:58:26;14.77;;;4.62;;
63653;SDS011;49809;47.418;19.080;2023-02-08T17:01:32;11.27;;;3.47;;
63653;SDS011;49809;47.418;19.080;2023-02-08T17:08:15;9.77;;;4.95;;
63653;SDS011;49809;47.418;19.080;2023-02-08T17:11:22;11.55;;;4.35;;
63653;SDS011;49809;47.418;19.080;2023-02-08T17:14:26;6.20;;;4.25;;
63653;SDS011;49809;47.418;19.080;2023-02-08T17:17:33;7.93;;;4.22;;
63653;SDS011;49809;47.418;19.080;2023-02-08T17:20:42;4.62;;;2.45;;
63653;SDS011;49809;47.418;19.080;2023-02-08T17:23:47;6.10;;;3.75;;
63653;SDS011;49809;47.418;19.080;2023-02-08T17:29:57;7.30;;;4.12;;
63653;SDS011;49809;47.418;19.080;2023-02-08T17:33:03;7.03;;;3.33;;
63653;SDS011;49809;47.418;19.080;2023-02-08T17:36:08;6.05;;;5.03;;
63653;SDS011;49809;47.418;19.080;2023-02-08T17:39:13;9.53;;;3.93;;
63653;SDS011;49809;47.418;19.080;2023-02-08T17:45:26;8.40;;;3.80;;
63653;SDS011;49809;47.418;19.080;2023-02-08T17:48:33;4.10;;;3.65;;
63653;SDS011;49809;47.418;19.080;2023-02-08T17:51:36;6.37;;;4.25;;
63653;SDS011;49809;47.418;19.080;2023-02-08T17:55:22;3.80;;;2.65;;
63653;SDS011;49809;47.418;19.080;2023-02-08T17:58:28;7.82;;;4.30;;
63653;SDS011;49809;47.418;19.080;2023-02-08T18:01:31;5.00;;;3.58;;
63653;SDS011;49809;47.418;19.080;2023-02-08T18:04:34;4.80;;;2.92;;
63653;SDS011;49809;47.418;19.080;2023-02-08T18:07:41;8.45;;;3.53;;
63653;SDS011;49809;47.418;19.080;2023-02-08T18:10:46;4.57;;;3.05;;
63653;SDS011;49809;47.418;19.080;2023-02-08T18:14:30;4.05;;;1.95;;
63653;SDS011;49809;47.418;19.080;2023-02-08T18:17:33;8.60;;;3.92;;
63653;SDS011;49809;47.418;19.080;2023-02-08T18:20:43;6.57;;;2.53;;
63653;SDS011;49809;47.418;19.080;2023-02-08T18:23:54;9.43;;;4.28;;
63653;SDS011;49809;47.418;19.080;2023-02-08T18:26:57;4.85;;;2.72;;
63653;SDS011;49809;47.418;19.080;2023-02-08T18:30:02;6.72;;;3.37;;
63653;SDS011;49809;47.418;19.080;2023-02-08T18:33:10;6.12;;;3.22;;
63653;SDS011;49809;47.418;19.080;2023-02-08T18:36:34;13.30;;;4.50;;
63653;SDS011;49809;47.418;19.080;2023-02-08T18:39:38;3.78;;;3.25;;
63653;SDS011;49809;47.418;19.080;2023-02-08T18:42:43;3.83;;;2.58;;
63653;SDS011;49809;47.418;19.080;2023-02-08T18:45:59;6.57;;;2.92;;
63653;SDS011;49809;47.418;19.080;2023-02-08T18:49:11;7.53;;;3.80;;
63653;SDS011;49809;47.418;19.080;2023-02-08T18:52:37;8.70;;;3.85;;
63653;SDS011;49809;47.418;19.080;2023-02-08T18:55:50;9.23;;;4.47;;
63653;SDS011;49809;47.418;19.080;2023-02-08T18:59:03;8.60;;;3.85;;
63653;SDS011;49809;47.418;19.080;2023-02-08T19:02:09;6.32;;;2.95;;
63653;SDS011;49809;47.418;19.080;2023-02-08T19:06:05;6.87;;;4.30;;
63653;SDS011;49809;47.418;19.080;2023-02-08T19:09:14;5.82;;;3.47;;
63653;SDS011;49809;47.418;19.080;2023-02-08T19:12:20;7.22;;;3.70;;
63653;SDS011;49809;47.418;19.080;2023-02-08T19:15:24;4.87;;;3.80;;
63653;SDS011;49809;47.418;19.080;2023-02-08T19:18:29;10.93;;;4.20;;
63653;SDS011;49809;47.418;19.080;2023-02-08T19:21:35;6.65;;;3.97;;
63653;SDS011;49809;47.418;19.080;2023-02-08T19:24:38;11.63;;;6.07;;
63653;SDS011;49809;47.418;19.080;2023-02-08T19:27:41;8.13;;;4.78;;
63653;SDS011;49809;47.418;19.080;2023-02-08T19:30:47;9.13;;;6.47;;
63653;SDS011;49809;47.418;19.080;2023-02-08T19:33:51;5.75;;;3.60;;
63653;SDS011;49809;47.418;19.080;2023-02-08T19:37:06;8.55;;;4.75;;
63653;SDS011;49809;47.418;19.080;2023-02-08T19:40:09;18.80;;;7.32;;
63653;SDS011;49809;47.418;19.080;2023-02-08T19:43:17;8.40;;;5.50;;
63653;SDS011;49809;47.418;19.080;2023-02-08T19:46:21;8.65;;;5.37;;
63653;SDS011;49809;47.418;19.080;2023-02-08T19:49:35;8.52;;;4.62;;
63653;SDS011;49809;47.418;19.080;2023-02-08T19:52:43;7.25;;;3.90;;
63653;SDS011;49809;47.418;19.080;2023-02-08T20:02:25;8.50;;;3.42;;
63653;SDS011;49809;47.418;19.080;2023-02-08T20:05:29;6.35;;;3.62;;
63653;SDS011;49809;47.418;19.080;2023-02-08T20:08:38;4.82;;;2.97;;
63653;SDS011;49809;47.418;19.080;2023-02-08T20:12:07;5.87;;;2.37;;
63653;SDS011;49809;47.418;19.080;2023-02-08T20:15:13;6.65;;;4.40;;
63653;SDS011;49809;47.418;19.080;2023-02-08T20:18:21;9.20;;;4.07;;
63653;SDS011;49809;47.418;19.080;2023-02-08T20:21:27;5.75;;;3.75;;
63653;SDS011;49809;47.418;19.080;2023-02-08T20:24:45;7.57;;;5.30;;
63653;SDS011;49809;47.418;19.080;2023-02-08T20:27:51;5.12;;;3.80;;
63653;SDS011;49809;47.418;19.080;2023-02-08T20:30:55;5.62;;;3.30;;
63653;SDS011;49809;47.418;19.080;2023-02-08T20:33:59;6.43;;;3.62;;
63653;SDS011;49809;47.418;19.080;2023-02-08T20:37:11;5.20;;;3.30;;
63653;SDS011;49809;47.418;19.080;2023-02-08T20:40:17;4.25;;;3.80;;
63653;SDS011;49809;47.418;19.080;2023-02-08T20:43:24;8.73;;;4.55;;
63653;SDS011;49809;47.418;19.080;2023-02-08T20:46:35;10.15;;;4.65;;
63653;SDS011;49809;47.418;19.080;2023-02-08T20:49:40;8.20;;;5.28;;
63653;SDS011;49809;47.418;19.080;2023-02-08T20:52:45;14.48;;;6.28;;
63653;SDS011;49809;47.418;19.080;2023-02-08T20:55:49;9.85;;;4.82;;
63653;SDS011;49809;47.418;19.080;2023-02-08T20:58:51;8.23;;;4.75;;
63653;SDS011;49809;47.418;19.080;2023-02-08T21:02:18;11.15;;;4.15;;
63653;SDS011;49809;47.418;19.080;2023-02-08T21:05:48;2.87;;;1.85;;
63653;SDS011;49809;47.418;19.080;2023-02-08T21:08:51;5.35;;;3.97;;
63653;SDS011;49809;47.418;19.080;2023-02-08T21:12:18;6.70;;;3.70;;
63653;SDS011;49809;47.418;19.080;2023-02-08T21:15:20;4.25;;;3.20;;
63653;SDS011;49809;47.418;19.080;2023-02-08T21:18:34;6.25;;;3.65;;
63653;SDS011;49809;47.418;19.080;2023-02-08T21:21:39;6.05;;;4.05;;
63653;SDS011;49809;47.418;19.080;2023-02-08T21:24:43;10.48;;;3.87;;
63653;SDS011;49809;47.418;19.080;2023-02-08T21:27:49;8.93;;;4.28;;
63653;SDS011;49809;47.418;19.080;2023-02-08T21:31:04;9.50;;;4.32;;
63653;SDS011;49809;47.418;19.080;2023-02-08T21:34:09;5.80;;;3.30;;
63653;SDS011;49809;47.418;19.080;2023-02-08T21:37:13;4.53;;;3.65;;
63653;SDS011;49809;47.418;19.080;2023-02-08T21:40:24;9.50;;;5.28;;
63653;SDS011;49809;47.418;19.080;2023-02-08T21:43:33;5.55;;;3.87;;
63653;SDS011;49809;47.418;19.080;2023-02-08T21:47:03;8.63;;;4.82;;
63653;SDS011;49809;47.418;19.080;2023-02-08T21:50:47;6.55;;;3.67;;
63653;SDS011;49809;47.418;19.080;2023-02-08T21:54:33;3.92;;;2.83;;
63653;SDS011;49809;47.418;19.080;2023-02-08T21:58:17;4.15;;;3.25;;
63653;SDS011;49809;47.418;19.080;2023-02-08T22:01:45;4.68;;;3.40;;
63653;SDS011;49809;47.418;19.080;2023-02-08T22:04:59;6.87;;;3.33;;
63653;SDS011;49809;47.418;19.080;2023-02-08T22:08:44;4.22;;;3.85;;
63653;SDS011;49809;47.418;19.080;2023-02-08T22:12:27;4.40;;;2.33;;
63653;SDS011;49809;47.418;19.080;2023-02-08T22:16:11;4.45;;;2.65;;
63653;SDS011;49809;47.418;19.080;2023-02-08T22:19:16;5.90;;;3.90;;
63653;SDS011;49809;47.418;19.080;2023-02-08T22:22:22;9.73;;;3.95;;
63653;SDS011;49809;47.418;19.080;2023-02-08T22:25:45;2.97;;;2.37;;
63653;SDS011;49809;47.418;19.080;2023-02-08T22:28:51;4.97;;;3.58;;
63653;SDS011;49809;47.418;19.080;2023-02-08T22:31:56;5.82;;;3.75;;
63653;SDS011;49809;47.418;19.080;2023-02-08T22:35:00;10.00;;;4.50;;
63653;SDS011;49809;47.418;19.080;2023-02-08T22:38:12;8.50;;;3.22;;
63653;SDS011;49809;47.418;19.080;2023-02-08T22:41:17;8.20;;;2.65;;
63653;SDS011;49809;47.418;19.080;2023-02-08T22:44:23;4.18;;;3.45;;
63653;SDS011;49809;47.418;19.080;2023-02-08T22:47:28;4.18;;;3.78;;
63653;SDS011;49809;47.418;19.080;2023-02-08T22:50:38;6.20;;;4.32;;
63653;SDS011;49809;47.418;19.080;2023-02-08T22:54:01;5.85;;;2.83;;